Time;durP1;ratioP1;P1;durP2;ratioP2;P2;SDS_P1;SDS_P2;PMS_P1;PMS_P2;Temp;Humidity;BMP_temperature;BMP_pressure;BME280_temperature;BME280_humidity;BME280_pressure;Samples;Min_cycle;Max_cycle;Signal;HPM_P1;HPM_P2
2022/01/27 00:00:57;;;;;;;26.52;11.43;;;2.30;99.90;;;;;;5053074;28;20029;-64
2022/01/27 00:03:29;;;;;;;32.33;11.45;;;2.30;99.90;;;;;;5053370;28;20061;-64
2022/01/27 00:05:59;;;;;;;31.67;11.52;;;2.30;99.90;;;;;;5036034;28;20356;-64
2022/01/27 00:08:32;;;;;;;29.55;11.77;;;2.30;99.90;;;;;;5038805;28;20029;-64
2022/01/27 00:11:01;;;;;;;28.27;10.75;;;2.50;99.90;;;;;;5056277;28;20443;-64
2022/01/27 00:13:30;;;;;;;;;;;2.30;99.90;;;;;;5039064;28;20061;-64
2022/01/27 00:18:45;;;;;;;30.88;10.90;;;2.30;99.90;;;;;;5056237;28;20471;-64
2022/01/27 00:21:12;;;;;;;35.60;11.63;;;2.30;99.90;;;;;;5056369;28;20025;-64
2022/01/27 00:23:40;;;;;;;29.52;9.80;;;2.30;99.90;;;;;;5038438;28;20036;-64
2022/01/27 00:26:06;;;;;;;23.02;7.53;;;2.30;99.90;;;;;;5056357;28;20029;-64
2022/01/27 00:28:32;;;;;;;34.38;11.57;;;2.30;99.90;;;;;;5055906;28;20036;-64
2022/01/27 00:30:57;;;;;;;33.60;11.55;;;2.30;99.90;;;;;;5037992;28;20021;-65
2022/01/27 00:33:23;;;;;;;30.80;11.00;;;2.30;99.90;;;;;;5038259;28;20114;-64
2022/01/27 00:35:49;;;;;;;29.27;10.63;;;2.30;99.90;;;;;;5055764;28;20025;-64
2022/01/27 00:38:15;;;;;;;37.63;13.20;;;2.30;99.90;;;;;;5038761;28;20374;-64
2022/01/27 00:40:40;;;;;;;30.98;11.68;;;2.30;99.90;;;;;;5055961;28;20048;-64
2022/01/27 00:43:06;;;;;;;33.55;11.77;;;2.30;99.90;;;;;;5056126;28;20094;-64
2022/01/27 00:45:33;;;;;;;36.25;13.45;;;2.30;99.90;;;;;;5056133;28;20454;-64
2022/01/27 00:48:02;;;;;;;35.30;13.00;;;2.30;99.90;;;;;;5055930;28;20033;-64
2022/01/27 00:50:28;;;;;;;32.50;12.15;;;2.30;99.90;;;;;;5037878;28;20124;-64
2022/01/27 00:52:56;;;;;;;35.35;12.13;;;2.30;99.90;;;;;;5038180;28;20078;-64
2022/01/27 00:55:24;;;;;;;35.83;12.40;;;2.50;99.90;;;;;;5055781;28;20021;-64
2022/01/27 01:00:21;;;;;;;29.77;11.82;;;2.30;99.90;;;;;;5055631;28;20028;-65
2022/01/27 01:02:56;;;;;;;35.95;12.95;;;2.30;99.90;;;;;;5055682;28;20028;-64
2022/01/27 01:19:12;;;;;;;39.80;12.90;;;2.30;99.90;;;;;;5054385;28;20469;-64
2022/01/27 01:32:49;;;;;;;38.35;12.05;;;2.30;99.90;;;;;;5055084;28;20083;-64
2022/01/27 01:35:15;;;;;;;36.80;12.15;;;2.40;99.90;;;;;;5037277;28;20021;-64
2022/01/27 01:37:42;;;;;;;35.33;11.52;;;2.60;99.90;;;;;;5054565;28;20392;-64
2022/01/27 01:40:12;;;;;;;28.08;10.75;;;2.20;99.90;;;;;;5055176;28;20453;-64
2022/01/27 01:42:38;;;;;;;26.88;10.40;;;2.20;99.90;;;;;;5054884;28;20064;-64
2022/01/27 01:45:12;;;;;;;36.33;12.77;;;2.30;99.90;;;;;;5036947;28;20064;-63
2022/01/27 01:47:38;;;;;;;32.65;10.15;;;2.20;99.90;;;;;;5054827;28;20025;-64
2022/01/27 01:50:07;;;;;;;36.88;12.75;;;2.30;99.90;;;;;;5054964;28;20028;-64
2022/01/27 01:52:33;;;;;;;39.60;11.85;;;2.20;99.90;;;;;;5054661;28;20028;-64
2022/01/27 01:54:59;;;;;;;31.85;11.60;;;2.30;99.90;;;;;;5054635;28;20043;-64
2022/01/27 01:57:24;;;;;;;37.60;12.65;;;2.40;99.90;;;;;;5054259;28;20021;-64
2022/01/27 01:59:51;;;;;;;40.67;11.68;;;2.30;99.90;;;;;;5054536;28;20103;-64
2022/01/27 02:02:16;;;;;;;29.75;12.18;;;2.30;99.90;;;;;;5054481;28;20104;-64
2022/01/27 02:04:43;;;;;;;38.25;11.68;;;2.20;99.90;;;;;;5054172;28;20154;-64
2022/01/27 02:18:19;;;;;;;29.42;10.98;;;2.30;99.90;;;;;;5053927;28;20040;-64
2022/01/27 02:20:45;;;;;;;38.55;11.73;;;2.30;99.90;;;;;;5054401;28;20123;-64
2022/01/27 02:23:11;;;;;;;32.42;10.90;;;2.30;99.90;;;;;;5036232;28;20052;-64
2022/01/27 02:25:37;;;;;;;38.70;13.57;;;2.30;99.90;;;;;;5054233;28;20455;-64
2022/01/27 02:28:05;;;;;;;32.80;11.93;;;2.30;99.90;;;;;;5036156;28;20025;-64
2022/01/27 02:30:30;;;;;;;37.22;12.80;;;2.30;99.90;;;;;;5053813;28;20070;-64
2022/01/27 02:32:58;;;;;;;42.58;11.98;;;2.30;99.90;;;;;;5053690;28;20025;-64
2022/01/27 02:35:26;;;;;;;35.97;12.30;;;2.30;99.90;;;;;;5054260;28;20027;-64
2022/01/27 02:37:53;;;;;;;35.72;12.05;;;3.00;99.90;;;;;;5053841;28;20047;-64
2022/01/27 02:40:26;;;;;;;34.13;11.93;;;2.30;99.90;;;;;;5053960;28;20086;-64
2022/01/27 02:42:53;;;;;;;35.50;12.73;;;2.30;99.90;;;;;;5053868;28;20029;-64
2022/01/27 02:45:30;;;;;;;33.08;12.95;;;2.30;99.90;;;;;;5053512;28;20025;-63
2022/01/27 02:47:56;;;;;;;36.15;12.63;;;2.40;99.90;;;;;;5053523;28;20056;-64
2022/01/27 02:50:22;;;;;;;30.73;11.57;;;2.30;99.90;;;;;;5053987;28;20110;-64
2022/01/27 02:52:47;;;;;;;37.72;11.73;;;2.30;99.90;;;;;;5035846;28;20461;-64
2022/01/27 02:55:13;;;;;;;34.28;10.93;;;2.30;99.90;;;;;;5053659;28;20028;-64
2022/01/27 02:57:39;;;;;;;28.40;11.25;;;2.30;99.90;;;;;;5053583;28;20044;-64
2022/01/27 03:00:06;;;;;;;33.95;11.50;;;2.30;99.90;;;;;;5053714;28;20111;-64
2022/01/27 03:02:33;;;;;;;40.42;14.20;;;2.30;99.90;;;;;;5035717;28;20029;-63
2022/01/27 03:04:59;;;;;;;33.50;11.38;;;2.30;99.90;;;;;;5053607;28;20068;-64
2022/01/27 03:07:24;;;;;;;32.38;12.23;;;2.30;99.90;;;;;;5053586;28;20056;-64
2022/01/27 03:09:50;;;;;;;33.95;12.60;;;2.50;99.90;;;;;;5053138;28;20111;-64
2022/01/27 03:12:17;;;;;;;36.88;13.18;;;2.30;99.90;;;;;;5053591;28;20358;-64
2022/01/27 03:14:42;;;;;;;36.70;13.38;;;2.30;99.90;;;;;;5035661;28;20029;-64
2022/01/27 03:17:10;;;;;;;31.75;10.82;;;2.30;99.90;;;;;;5053259;28;20079;-64
2022/01/27 03:19:37;;;;;;;41.17;12.73;;;2.30;99.90;;;;;;5053586;28;20116;-64
2022/01/27 03:22:04;;;;;;;41.10;12.88;;;2.30;99.90;;;;;;5035850;28;20453;-64
2022/01/27 03:24:30;;;;;;;35.78;11.55;;;2.30;99.90;;;;;;5053653;28;20036;-64
2022/01/27 03:26:56;;;;;;;37.15;11.30;;;2.30;99.90;;;;;;5053410;28;20047;-64
2022/01/27 03:29:23;;;;;;;35.45;11.73;;;2.30;99.90;;;;;;5053449;28;20029;-64
2022/01/27 03:31:49;;;;;;;34.33;11.02;;;2.20;99.90;;;;;;5035396;28;20032;-65
2022/01/27 03:34:15;;;;;;;42.78;11.77;;;2.30;99.90;;;;;;5053336;28;20029;-64
2022/01/27 03:36:42;;;;;;;34.83;9.77;;;2.20;99.90;;;;;;5035386;28;20040;-64
2022/01/27 03:39:09;;;;;;;31.80;10.70;;;2.30;99.90;;;;;;5035245;28;20044;-64
2022/01/27 03:41:37;;;;;;;36.83;12.32;;;2.30;99.90;;;;;;5055192;28;20059;-64
2022/01/27 03:44:05;;;;;;;34.13;11.05;;;2.30;99.90;;;;;;5056886;28;20540;-64
2022/01/27 03:46:30;;;;;;;27.00;10.13;;;2.30;99.90;;;;;;5057018;28;20039;-64
2022/01/27 03:48:56;;;;;;;37.88;12.55;;;2.30;99.90;;;;;;5057024;28;20109;-64
2022/01/27 03:51:22;;;;;;;31.30;11.00;;;2.30;99.90;;;;;;5039101;28;20035;-64
2022/01/27 03:53:48;;;;;;;32.90;9.75;;;2.30;99.90;;;;;;5057162;28;20025;-64
2022/01/27 03:56:13;;;;;;;34.67;11.75;;;2.30;99.90;;;;;;5056553;28;20029;-65
2022/01/27 03:58:39;;;;;;;32.60;11.43;;;2.30;99.90;;;;;;5056771;28;20025;-64
2022/01/27 04:01:05;;;;;;;27.58;10.45;;;2.40;99.90;;;;;;5056789;28;20079;-64
2022/01/27 04:03:35;;;;;;;39.55;11.50;;;2.30;99.90;;;;;;5056714;28;20083;-64
2022/01/27 04:06:06;;;;;;;33.65;12.05;;;2.40;99.90;;;;;;5039349;28;20079;-64
2022/01/27 04:08:35;;;;;;;31.50;11.88;;;2.30;99.90;;;;;;5038994;28;20076;-64
2022/01/27 04:11:00;;;;;;;29.30;10.82;;;2.30;99.90;;;;;;5056898;28;20045;-64
2022/01/27 04:13:26;;;;;;;32.85;10.48;;;2.30;99.90;;;;;;5056944;28;20041;-64
2022/01/27 04:15:52;;;;;;;28.55;11.48;;;2.30;99.90;;;;;;5056821;28;20036;-64
2022/01/27 04:18:17;;;;;;;32.95;10.43;;;2.20;99.90;;;;;;5038549;28;20041;-64
2022/01/27 04:20:43;;;;;;;41.00;12.48;;;2.30;99.90;;;;;;5038585;28;20021;-64
2022/01/27 04:23:09;;;;;;;27.60;10.50;;;2.20;99.90;;;;;;5056396;28;20029;-64
2022/01/27 04:25:37;;;;;;;29.92;10.98;;;2.30;99.90;;;;;;5038640;28;20025;-64
2022/01/27 04:28:07;;;;;;;35.63;11.95;;;2.20;99.90;;;;;;5056503;28;20025;-64
2022/01/27 04:30:33;;;;;;;34.83;11.90;;;2.30;99.90;;;;;;5056681;28;20053;-64
2022/01/27 04:33:01;;;;;;;30.92;11.57;;;3.00;99.90;;;;;;5056563;28;20424;-64
2022/01/27 04:35:31;;;;;;;25.50;8.27;;;2.30;99.90;;;;;;5038397;28;20024;-64
2022/01/27 04:40:33;;;;;;;34.58;11.05;;;2.20;99.90;;;;;;5056087;28;20029;-64
2022/01/27 04:45:44;;;;;;;34.80;11.90;;;2.30;99.90;;;;;;5056016;28;20539;-64
2022/01/27 04:48:14;;;;;;;34.83;12.02;;;3.40;99.90;;;;;;5055884;28;20074;-64
2022/01/27 04:50:40;;;;;;;34.67;12.43;;;2.30;99.90;;;;;;5056197;28;20079;-64
2022/01/27 04:53:11;;;;;;;29.92;10.77;;;2.30;99.90;;;;;;5055782;28;20025;-64
2022/01/27 04:55:37;;;;;;;34.65;12.25;;;2.20;99.90;;;;;;5038149;28;20017;-64
2022/01/27 04:58:14;;;;;;;32.97;11.00;;;2.20;99.90;;;;;;5055688;28;20036;-64
2022/01/27 05:00:40;;;;;;;34.88;12.02;;;2.20;99.90;;;;;;5055556;28;20111;-64
2022/01/27 05:03:15;;;;;;;31.92;11.27;;;2.20;99.90;;;;;;5037729;28;20425;-64
2022/01/27 05:05:41;;;;;;;30.80;11.23;;;2.20;99.90;;;;;;5055229;28;20424;-64
2022/01/27 05:08:25;;;;;;;36.13;11.82;;;2.20;99.90;;;;;;5055383;28;20025;-64
2022/01/27 05:13:49;;;;;;;25.20;9.93;;;3.30;99.90;;;;;;5069696;28;20033;-64
2022/01/27 05:16:14;;;;;;;34.40;11.93;;;2.20;99.90;;;;;;5075521;28;20021;-64
2022/01/27 05:18:40;;;;;;;36.72;10.30;;;2.20;99.90;;;;;;5075276;28;20040;-64
2022/01/27 05:21:05;;;;;;;36.92;12.05;;;2.30;99.90;;;;;;5073964;28;20075;-64
2022/01/27 05:23:31;;;;;;;32.92;11.85;;;2.20;99.90;;;;;;5075153;28;20021;-64
2022/01/27 05:25:57;;;;;;;34.88;12.15;;;2.20;99.90;;;;;;5073926;28;20402;-64
2022/01/27 05:28:23;;;;;;;31.10;11.18;;;2.20;99.90;;;;;;5075087;28;20587;-64
2022/01/27 05:30:48;;;;;;;38.00;13.65;;;2.10;99.90;;;;;;5075087;28;20388;-64
2022/01/27 05:33:14;;;;;;;35.88;11.55;;;2.10;99.90;;;;;;5075055;28;20020;-64
2022/01/27 05:35:40;;;;;;;35.35;11.43;;;2.20;99.90;;;;;;5073714;28;20070;-64
2022/01/27 05:38:06;;;;;;;35.55;12.23;;;2.10;99.90;;;;;;5073517;28;20113;-64
2022/01/27 05:40:31;;;;;;;37.88;12.63;;;2.20;99.90;;;;;;5074858;28;20032;-64
2022/01/27 05:42:57;;;;;;;32.75;12.07;;;2.30;99.90;;;;;;5074950;28;20525;-64
2022/01/27 05:45:22;;;;;;;44.05;14.55;;;2.20;99.90;;;;;;5074504;28;20491;-64
2022/01/27 05:47:48;;;;;;;41.20;13.30;;;2.20;99.90;;;;;;5074812;28;20451;-64
2022/01/27 05:50:14;;;;;;;32.47;11.40;;;3.40;99.90;;;;;;5074367;28;20104;-64
2022/01/27 05:52:39;;;;;;;41.05;12.40;;;2.10;99.90;;;;;;5073355;28;20445;-64
2022/01/27 05:55:06;;;;;;;40.63;14.07;;;2.20;99.90;;;;;;5074597;28;20416;-64
2022/01/27 05:57:31;;;;;;;37.65;12.13;;;2.10;99.90;;;;;;5074461;28;20036;-64
2022/01/27 05:59:57;;;;;;;35.53;13.77;;;2.60;99.90;;;;;;5073208;28;20514;-64
2022/01/27 06:02:23;;;;;;;34.17;12.27;;;2.60;99.90;;;;;;5073113;28;20028;-64
2022/01/27 06:04:49;;;;;;;34.85;11.63;;;2.20;99.90;;;;;;5072867;28;20056;-64
2022/01/27 06:07:15;;;;;;;34.65;12.18;;;2.20;99.90;;;;;;5074043;28;20488;-64
2022/01/27 06:09:41;;;;;;;36.33;13.13;;;2.30;99.90;;;;;;5066654;28;20107;-64
2022/01/27 06:12:07;;;;;;;36.20;12.00;;;2.10;99.90;;;;;;5036380;28;20139;-64
2022/01/27 06:14:33;;;;;;;35.42;11.93;;;2.10;99.90;;;;;;5054182;28;20029;-65
2022/01/27 06:16:58;;;;;;;40.60;13.40;;;2.10;99.90;;;;;;5053921;28;20071;-64
2022/01/27 06:19:27;;;;;;;28.25;9.65;;;2.10;99.90;;;;;;5054377;28;20376;-64
2022/01/27 06:21:53;;;;;;;34.45;12.85;;;2.10;99.90;;;;;;5054134;28;20025;-64
2022/01/27 06:24:18;;;;;;;40.17;12.52;;;2.10;99.90;;;;;;5036103;28;20163;-64
2022/01/27 06:26:44;;;;;;;35.72;13.00;;;2.10;99.90;;;;;;5054222;28;20029;-64
2022/01/27 06:29:10;;;;;;;41.53;11.95;;;2.20;99.90;;;;;;5054262;28;20032;-65
2022/01/27 06:31:35;;;;;;;37.72;13.32;;;2.10;99.90;;;;;;5055028;28;20103;-64
2022/01/27 06:34:01;;;;;;;38.45;12.60;;;2.10;99.90;;;;;;5054451;28;20031;-69
2022/01/27 06:36:27;;;;;;;43.13;13.27;;;2.10;99.90;;;;;;5054264;28;20029;-64
2022/01/27 06:38:52;;;;;;;40.75;14.23;;;2.10;99.90;;;;;;5054933;28;20041;-64
2022/01/27 06:41:18;;;;;;;43.22;13.20;;;2.10;99.90;;;;;;5054717;28;20356;-64
2022/01/27 06:43:44;;;;;;;36.58;13.02;;;2.80;99.90;;;;;;5053987;28;20409;-64
2022/01/27 06:46:09;;;;;;;38.00;13.35;;;2.40;99.90;;;;;;5053775;28;20025;-64
2022/01/27 06:48:35;;;;;;;40.00;13.00;;;2.10;99.90;;;;;;5035869;28;20065;-64
2022/01/27 06:51:04;;;;;;;39.25;14.43;;;2.50;99.90;;;;;;5053664;28;20052;-64
2022/01/27 06:53:30;;;;;;;37.05;13.32;;;2.10;99.90;;;;;;5053662;28;20021;-64
2022/01/27 06:55:56;;;;;;;40.88;13.05;;;2.10;99.90;;;;;;5035713;28;20025;-64
2022/01/27 06:58:21;;;;;;;46.25;14.07;;;2.10;99.90;;;;;;5035998;28;20366;-64
2022/01/27 07:00:47;;;;;;;37.78;13.85;;;2.10;99.90;;;;;;5053646;28;20380;-64
2022/01/27 07:03:13;;;;;;;46.40;14.48;;;2.20;99.90;;;;;;5053548;28;20028;-64
2022/01/27 07:05:40;;;;;;;42.72;14.20;;;2.10;99.90;;;;;;5053532;28;20036;-64
2022/01/27 07:08:06;;;;;;;42.78;14.93;;;2.00;99.90;;;;;;5035695;28;20032;-64
2022/01/27 07:10:32;;;;;;;40.72;13.52;;;2.00;99.90;;;;;;5053096;28;20502;-64
2022/01/27 07:12:57;;;;;;;47.22;14.60;;;2.00;99.90;;;;;;5052847;28;20025;-64
2022/01/27 07:15:23;;;;;;;42.58;14.20;;;2.40;99.90;;;;;;5052646;28;20031;-64
2022/01/27 07:17:49;;;;;;;45.15;15.18;;;2.00;99.90;;;;;;5056089;28;20451;-64
2022/01/27 07:20:16;;;;;;;37.83;12.88;;;2.00;99.90;;;;;;5056134;28;20029;-64
2022/01/27 07:22:42;;;;;;;34.30;13.05;;;2.00;99.90;;;;;;5038276;28;20025;-64
2022/01/27 07:25:08;;;;;;;35.80;13.13;;;2.10;99.90;;;;;;5056091;28;20025;-64
2022/01/27 07:27:35;;;;;;;42.33;13.85;;;2.20;99.90;;;;;;5055993;28;20040;-64
2022/01/27 07:30:01;;;;;;;53.42;14.70;;;2.20;99.90;;;;;;5037814;28;20119;-64
2022/01/27 07:32:27;;;;;;;40.97;14.55;;;2.30;99.90;;;;;;5055710;28;20033;-64
2022/01/27 07:34:53;;;;;;;40.38;14.18;;;2.30;99.90;;;;;;5055905;28;20119;-64
2022/01/27 07:37:19;;;;;;;37.72;13.38;;;2.40;99.90;;;;;;5055641;28;20384;-64
2022/01/27 07:39:45;;;;;;;44.85;14.30;;;2.40;99.90;;;;;;5037890;28;20392;-64
2022/01/27 07:42:11;;;;;;;41.10;14.10;;;2.50;99.90;;;;;;5055790;28;20029;-64
2022/01/27 07:44:37;;;;;;;39.33;14.48;;;2.60;99.90;;;;;;5055933;28;20033;-64
2022/01/27 07:47:03;;;;;;;41.00;14.40;;;2.60;99.90;;;;;;5055707;28;20057;-63
2022/01/27 07:49:29;;;;;;;34.97;13.13;;;2.60;99.90;;;;;;5055389;28;20106;-64
2022/01/27 07:51:55;;;;;;;39.30;13.60;;;2.70;99.90;;;;;;5056064;28;20021;-63
2022/01/27 07:54:20;;;;;;;41.45;13.98;;;2.70;99.90;;;;;;5056043;28;20021;-64
2022/01/27 07:56:46;;;;;;;36.55;13.70;;;3.10;99.90;;;;;;5055786;28;20427;-64
2022/01/27 07:59:12;;;;;;;37.13;13.80;;;2.80;99.90;;;;;;5037749;28;20033;-64
2022/01/27 08:01:38;;;;;;;36.05;14.13;;;2.90;99.90;;;;;;5037700;28;20029;-64
2022/01/27 08:04:03;;;;;;;33.40;12.68;;;2.90;99.90;;;;;;5055711;28;20079;-65
2022/01/27 08:06:29;;;;;;;36.95;13.38;;;3.10;99.90;;;;;;5055830;28;20107;-64
2022/01/27 08:08:55;;;;;;;37.90;14.43;;;3.30;99.90;;;;;;5015437;28;1139608;-64
2022/01/27 08:11:20;;;;;;;32.95;12.45;;;3.40;99.90;;;;;;5038332;28;20033;-64
2022/01/27 08:13:46;;;;;;;42.17;14.38;;;3.50;99.90;;;;;;5056469;28;20079;-64
2022/01/27 08:16:12;;;;;;;37.13;13.00;;;3.60;99.90;;;;;;5056100;28;20104;-64
2022/01/27 08:18:37;;;;;;;36.65;13.77;;;3.70;99.90;;;;;;5038163;28;20044;-64
2022/01/27 08:21:03;;;;;;;38.22;14.10;;;3.80;99.90;;;;;;5038510;28;20021;-64
2022/01/27 08:23:29;;;;;;;35.88;13.93;;;4.00;99.90;;;;;;5056348;28;20104;-64
2022/01/27 08:26:12;;;;;;;37.08;13.68;;;4.10;99.90;;;;;;5038398;28;20383;-64
2022/01/27 08:28:45;;;;;;;39.38;12.45;;;4.10;99.90;;;;;;5056022;28;20025;-64
2022/01/27 08:31:13;;;;;;;43.13;13.73;;;4.30;99.90;;;;;;5056271;28;20112;-64
2022/01/27 08:33:40;;;;;;;39.05;14.70;;;4.40;99.90;;;;;;5038349;28;20107;-63
2022/01/27 08:36:06;;;;;;;35.75;13.32;;;4.50;99.90;;;;;;5056492;28;20461;-64
2022/01/27 08:38:32;;;;;;;33.83;12.32;;;4.70;99.90;;;;;;5056178;28;20037;-64
2022/01/27 08:41:01;;;;;;;32.70;11.63;;;5.00;99.90;;;;;;5056161;28;20499;-64
2022/01/27 08:43:27;;;;;;;36.65;11.90;;;5.20;99.90;;;;;;5056032;28;20025;-64
2022/01/27 08:45:53;;;;;;;33.83;13.13;;;5.40;99.90;;;;;;5038116;28;20036;-64
2022/01/27 08:48:21;;;;;;;29.70;12.23;;;5.50;99.90;;;;;;5055943;28;20483;-63
2022/01/27 08:51:00;;;;;;;30.02;11.85;;;5.50;99.90;;;;;;5037975;28;20024;-64
2022/01/27 08:53:27;;;;;;;29.27;10.55;;;5.50;99.90;;;;;;5055892;28;20036;-64
2022/01/27 08:55:53;;;;;;;33.70;12.75;;;5.80;99.90;;;;;;5055786;28;20112;-63
2022/01/27 08:58:20;;;;;;;31.63;12.70;;;6.10;99.90;;;;;;5037762;28;20048;-63
2022/01/27 09:00:46;;;;;;;32.22;12.95;;;6.20;99.90;;;;;;5055560;28;20380;-63
2022/01/27 09:03:12;;;;;;;30.23;11.25;;;6.30;99.90;;;;;;5038009;28;20025;-64
2022/01/27 09:05:38;;;;;;;29.67;11.55;;;6.20;99.90;;;;;;5055615;28;20033;-64
2022/01/27 09:08:03;;;;;;;33.42;11.48;;;6.30;99.90;;;;;;5055597;28;20043;-63
2022/01/27 09:10:32;;;;;;;31.55;11.10;;;6.50;99.90;;;;;;5055914;28;20059;-64
2022/01/27 09:13:02;;;;;;;31.85;11.27;;;6.10;99.90;;;;;;5055936;28;20083;-64
2022/01/27 09:15:29;;;;;;;26.05;10.45;;;6.00;99.90;;;;;;5055773;28;20057;-64
2022/01/27 09:17:56;;;;;;;28.10;10.85;;;6.20;99.90;;;;;;5055303;28;20040;-64
2022/01/27 09:20:22;;;;;;;22.63;10.02;;;6.30;99.90;;;;;;5055286;28;20021;-64
2022/01/27 09:22:48;;;;;;;26.33;11.30;;;6.40;99.90;;;;;;5055347;28;20384;-64
2022/01/27 09:25:19;;;;;;;25.65;9.82;;;6.90;99.90;;;;;;5055144;28;20488;-64
2022/01/27 09:27:46;;;;;;;23.65;10.10;;;7.40;99.90;;;;;;5055354;28;20098;-64
2022/01/27 09:30:15;;;;;;;30.00;11.23;;;7.60;99.90;;;;;;5055138;28;20074;-63
2022/01/27 09:32:41;;;;;;;25.92;9.85;;;7.80;99.90;;;;;;5055268;28;20029;-64
2022/01/27 09:35:07;;;;;;;25.65;9.95;;;8.00;99.90;;;;;;5037242;28;20025;-64
2022/01/27 09:37:33;;;;;;;22.02;9.13;;;8.10;98.70;;;;;;5055256;28;20029;-64
2022/01/27 09:39:59;;;;;;;25.48;10.25;;;7.60;99.70;;;;;;5036245;28;20025;-64
2022/01/27 09:42:27;;;;;;;22.75;10.18;;;7.40;99.90;;;;;;5037197;28;20438;-65
2022/01/27 09:44:53;;;;;;;27.48;10.30;;;7.10;99.90;;;;;;5054712;28;20017;-63
2022/01/27 09:47:23;;;;;;;22.40;9.45;;;7.10;99.90;;;;;;5054522;28;20041;-64
2022/01/27 09:52:40;;;;;;;18.27;8.52;;;7.70;99.40;;;;;;5054702;28;20461;-64
2022/01/27 09:55:06;;;;;;;22.48;8.95;;;7.80;99.00;;;;;;5054891;28;20025;-63
2022/01/27 09:57:32;;;;;;;19.63;8.75;;;8.10;98.20;;;;;;5054478;28;20516;-64
2022/01/27 09:59:57;;;;;;;18.70;8.93;;;8.30;98.20;;;;;;5054811;28;20104;-64
2022/01/27 10:02:26;;;;;;;19.92;9.40;;;8.50;97.10;;;;;;5036615;28;20449;-64
2022/01/27 10:05:02;;;;;;;21.65;9.85;;;8.90;95.40;;;;;;5036554;28;20025;-64
2022/01/27 10:07:39;;;;;;;21.88;9.02;;;9.10;95.10;;;;;;5054678;28;20037;-64
2022/01/27 10:10:11;;;;;;;17.38;8.35;;;8.80;96.50;;;;;;5055184;28;20052;-63
2022/01/27 10:12:46;;;;;;;18.70;8.90;;;8.70;96.40;;;;;;5074357;28;20032;-63
2022/01/27 10:15:18;;;;;;;19.05;9.27;;;8.70;95.50;;;;;;5074410;28;20063;-64
2022/01/27 10:18:08;;;;;;;20.10;8.38;;;8.50;94.90;;;;;;5072989;28;20377;-63
2022/01/27 10:20:38;;;;;;;18.88;8.88;;;8.30;96.00;;;;;;5072765;28;20021;-65
2022/01/27 10:23:25;;;;;;;18.63;8.52;;;8.40;96.20;;;;;;5072526;28;20429;-64
2022/01/27 10:25:55;;;;;;;15.65;8.50;;;8.50;95.50;;;;;;5074726;28;20037;-64
2022/01/27 10:29:01;;;;;;;15.60;7.78;;;8.40;95.70;;;;;;5072912;28;20033;-64
2022/01/27 10:31:23;;;;;;;18.00;7.78;;;8.80;94.20;;;;;;5073428;28;20476;-54
2022/01/27 10:33:58;;;;;;;20.17;7.85;;;8.80;96.30;;;;;;5074130;28;20035;-54
2022/01/27 10:36:31;;;;;;;15.52;7.40;;;9.20;95.90;;;;;;5073934;28;20524;-55
2022/01/27 10:39:01;;;;;;;17.33;8.55;;;9.20;95.70;;;;;;5073831;28;20037;-64
2022/01/27 10:41:29;;;;;;;18.08;7.50;;;8.50;92.30;;;;;;5074119;28;20070;-64
2022/01/27 10:44:16;;;;;;;14.20;6.20;;;8.30;94.30;;;;;;5073791;28;20024;-64
2022/01/27 10:47:03;;;;;;;15.20;6.45;;;7.80;95.50;;;;;;5074159;28;20039;-64
2022/01/27 10:49:31;;;;;;;15.90;6.93;;;7.60;96.10;;;;;;5072535;28;20037;-64
2022/01/27 10:51:57;;;;;;;10.27;5.18;;;7.60;96.80;;;;;;5073861;28;20464;-64
2022/01/27 10:54:37;;;;;;;18.17;6.45;;;7.80;95.50;;;;;;5073758;28;20028;-64
2022/01/27 10:57:08;;;;;;;17.50;7.10;;;8.30;95.30;;;;;;5073797;28;20029;-64
2022/01/27 10:59:34;;;;;;;14.85;6.53;;;8.70;94.00;;;;;;5073662;28;20037;-64
2022/01/27 11:02:05;;;;;;;14.98;6.88;;;8.70;92.40;;;;;;5073722;28;20126;-64
2022/01/27 11:04:34;;;;;;;16.85;7.78;;;8.90;92.80;;;;;;5073608;28;20024;-64
2022/01/27 11:07:02;;;;;;;18.37;7.10;;;9.60;91.60;;;;;;5073677;28;20025;-64
2022/01/27 11:09:33;;;;;;;22.00;7.88;;;9.60;89.80;;;;;;5067621;28;20502;-64
2022/01/27 11:11:59;;;;;;;15.07;7.32;;;10.00;89.20;;;;;;5035580;28;20473;-65
2022/01/27 11:14:25;;;;;;;17.10;7.22;;;10.30;83.80;;;;;;5053504;28;20481;-64
2022/01/27 11:16:56;;;;;;;12.40;6.35;;;10.90;82.00;;;;;;5053424;28;20036;-64
2022/01/27 11:22:06;;;;;;;15.75;8.48;;;10.60;78.20;;;;;;5053338;28;20465;-64
2022/01/27 11:27:26;;;;;;;15.23;7.25;;;10.30;79.00;;;;;;5053235;28;20071;-64
2022/01/27 11:30:04;;;;;;;15.57;7.72;;;10.70;76.10;;;;;;5053330;28;20040;-64
2022/01/27 11:32:45;;;;;;;16.67;7.40;;;10.50;77.70;;;;;;5053597;28;20086;-64
2022/01/27 11:35:17;;;;;;;19.85;7.38;;;10.30;76.80;;;;;;5053304;28;20251;-64
2022/01/27 11:37:50;;;;;;;16.40;7.65;;;10.60;76.00;;;;;;5053165;28;20021;-64
2022/01/27 11:40:18;;;;;;;16.88;8.05;;;10.80;71.70;;;;;;5053434;28;20048;-64
2022/01/27 11:43:01;;;;;;;16.35;8.07;;;10.50;75.40;;;;;;5035185;28;20477;-64
2022/01/27 11:45:36;;;;;;;13.48;7.25;;;10.50;74.60;;;;;;5052203;28;20503;-64
2022/01/27 11:48:14;;;;;;;15.45;7.50;;;10.40;75.90;;;;;;5070661;28;20063;-64
2022/01/27 11:50:56;;;;;;;16.30;7.50;;;10.00;76.90;;;;;;5055192;28;20033;-64
2022/01/27 11:53:45;;;;;;;14.00;6.18;;;10.20;77.50;;;;;;5073253;28;20025;-64
2022/01/27 11:56:36;;;;;;;12.93;6.68;;;10.60;71.90;;;;;;5055363;28;20426;-64
2022/01/27 11:59:05;;;;;;;14.45;6.53;;;10.60;72.60;;;;;;5073305;28;20036;-64
2022/01/27 12:01:34;;;;;;;14.60;6.85;;;10.20;72.10;;;;;;5073147;28;20529;-65
2022/01/27 12:04:02;;;;;;;14.10;6.20;;;10.30;73.80;;;;;;5059330;28;20489;-65
2022/01/27 12:06:32;;;;;;;13.90;7.03;;;10.60;72.70;;;;;;5058788;28;20028;-64
2022/01/27 12:09:22;;;;;;;13.90;6.75;;;11.10;67.40;;;;;;5076420;28;20541;-65
2022/01/27 12:11:49;;;;;;;11.55;6.45;;;11.10;63.10;;;;;;5076604;28;20104;-64
2022/01/27 12:14:18;;;;;;;14.13;6.35;;;10.60;65.60;;;;;;5058616;28;20016;-64
2022/01/27 12:19:13;;;;;;;10.27;5.38;;;11.10;60.20;;;;;;5076423;28;19920;-64
2022/01/27 12:21:44;;;;;;;11.63;5.05;;;11.40;56.50;;;;;;5076469;28;20028;-64
2022/01/27 12:24:21;;;;;;;9.93;5.65;;;11.00;57.30;;;;;;5058419;28;20383;-65
2022/01/27 12:26:50;;;;;;;11.38;5.55;;;11.10;57.00;;;;;;5076639;28;20021;-64
2022/01/27 12:29:30;;;;;;;11.35;5.35;;;10.90;57.60;;;;;;5076319;28;20036;-64
2022/01/27 12:32:00;;;;;;;13.35;5.68;;;10.90;58.20;;;;;;5076296;28;20108;-64
2022/01/27 12:34:27;;;;;;;11.55;5.38;;;11.20;56.50;;;;;;5058241;28;20037;-64
2022/01/27 12:36:59;;;;;;;11.60;5.00;;;11.40;56.40;;;;;;5076156;28;20033;-65
2022/01/27 12:39:28;;;;;;;11.02;5.80;;;11.90;54.90;;;;;;5076369;28;20433;-64
2022/01/27 12:44:41;;;;;;;10.70;4.85;;;11.70;54.00;;;;;;5076143;28;19911;-63
2022/01/27 12:47:14;;;;;;;10.15;5.88;;;11.20;55.60;;;;;;5057969;28;20353;-65
2022/01/27 12:49:59;;;;;;;9.82;4.97;;;11.10;57.60;;;;;;5057837;28;20503;-64
2022/01/27 12:52:28;;;;;;;9.93;5.35;;;11.60;56.50;;;;;;5075803;28;20422;-64
2022/01/27 12:54:54;;;;;;;11.85;4.95;;;12.00;53.70;;;;;;5075757;28;20028;-64
2022/01/27 12:57:25;;;;;;;10.18;5.35;;;11.90;52.30;;;;;;5057727;28;20380;-64
2022/01/27 12:59:53;;;;;;;11.48;5.32;;;11.30;54.40;;;;;;5075634;28;20116;-64
2022/01/27 13:02:20;;;;;;;10.07;4.78;;;11.00;55.40;;;;;;5075878;28;20057;-64
2022/01/27 13:04:47;;;;;;;10.02;5.13;;;10.80;58.40;;;;;;5075363;28;20546;-64
2022/01/27 13:07:13;;;;;;;14.95;6.00;;;10.60;59.80;;;;;;5075572;28;20047;-64
2022/01/27 13:09:39;;;;;;;10.77;5.25;;;10.60;61.10;;;;;;5068858;28;20044;-64
2022/01/27 13:12:16;;;;;;;10.68;5.32;;;10.30;63.30;;;;;;5095672;28;20035;-64
2022/01/27 13:15:06;;;;;;;11.45;4.88;;;10.30;64.00;;;;;;5094635;28;20020;-63
2022/01/27 13:17:42;;;;;;;12.27;5.70;;;10.30;64.10;;;;;;5095694;28;20048;-63
2022/01/27 13:20:25;;;;;;;8.48;4.95;;;10.20;64.90;;;;;;5095671;28;20036;-63
2022/01/27 13:23:04;;;;;;;10.45;5.32;;;10.10;67.40;;;;;;5094789;28;20024;-64
2022/01/27 13:25:43;;;;;;;10.90;5.22;;;10.10;68.10;;;;;;5095754;28;20345;-63
2022/01/27 13:28:14;;;;;;;10.73;5.47;;;10.10;68.70;;;;;;5094499;28;20060;-64
2022/01/27 13:30:41;;;;;;;11.85;4.93;;;10.10;67.60;;;;;;5095573;28;20024;-64
2022/01/27 13:33:11;;;;;;;12.10;4.88;;;10.30;66.40;;;;;;5095365;28;20085;-64
2022/01/27 13:35:37;;;;;;;10.75;4.43;;;10.30;64.60;;;;;;5095492;28;20024;-64
2022/01/27 13:38:25;;;;;;;8.93;4.93;;;10.40;63.20;;;;;;5095110;28;20042;-63
2022/01/27 13:41:22;;;;;;;15.45;5.35;;;10.70;62.60;;;;;;5095123;28;20115;-64
2022/01/27 13:43:53;;;;;;;9.88;4.63;;;10.90;63.20;;;;;;5093817;28;20024;-64
2022/01/27 13:46:37;;;;;;;8.95;4.43;;;10.70;62.70;;;;;;5094971;28;20537;-65
2022/01/27 13:49:19;;;;;;;10.68;5.30;;;10.80;62.00;;;;;;5095011;28;20024;-64